createdAt,value
2024-02-29T00:00:41.047Z,84.18
2024-02-29T00:03:10.265Z,83.89
2024-02-29T00:05:40.490Z,84.12
2024-02-29T00:08:07.355Z,84.38
2024-02-29T00:10:33.897Z,84.50
2024-02-29T00:13:00.894Z,84.34
2024-02-29T00:15:28.415Z,84.14
2024-02-29T00:17:55.031Z,84.62
2024-02-29T00:20:21.661Z,85.11
2024-02-29T00:22:48.223Z,85.00
2024-02-29T00:25:14.797Z,84.94
2024-02-29T00:27:41.706Z,84.85
2024-02-29T00:30:08.890Z,85.23
2024-02-29T00:32:36.357Z,85.08
2024-02-29T00:35:03.066Z,84.96
2024-02-29T00:37:29.747Z,85.08
2024-02-29T00:39:56.588Z,85.13
2024-02-29T00:42:23.191Z,85.52
2024-02-29T00:44:49.749Z,85.47
2024-02-29T00:47:16.305Z,86.43
2024-02-29T00:49:42.852Z,86.05
2024-02-29T00:52:09.622Z,86.36
2024-02-29T00:54:36.337Z,87.11
2024-02-29T00:57:03.465Z,86.79
2024-02-29T00:59:30.060Z,86.75
2024-02-29T01:01:57.223Z,86.91
2024-02-29T01:04:24.410Z,87.21
2024-02-29T01:06:51.124Z,87.25
2024-02-29T01:09:19.058Z,87.30
2024-02-29T01:11:45.666Z,86.67
2024-02-29T01:14:12.197Z,87.24
2024-02-29T01:16:38.749Z,87.15
2024-02-29T01:19:07.398Z,87.32
2024-02-29T01:21:34.085Z,87.37
2024-02-29T01:24:00.694Z,87.56
2024-02-29T01:26:27.451Z,87.45
2024-02-29T01:28:54.026Z,87.48
2024-02-29T01:31:21.305Z,87.72
2024-02-29T01:33:48.227Z,87.88
2024-02-29T01:36:15.080Z,87.72
2024-02-29T01:38:41.657Z,87.50
2024-02-29T01:41:08.206Z,87.40
2024-02-29T01:43:35.797Z,87.71
2024-02-29T01:46:11.174Z,87.38
2024-02-29T01:48:37.886Z,87.75
2024-02-29T01:51:05.434Z,87.60
2024-02-29T01:53:34.680Z,87.20
2024-02-29T01:56:01.514Z,87.48
2024-02-29T01:58:28.591Z,87.73
2024-02-29T02:00:55.250Z,87.65
2024-02-29T02:03:22.319Z,87.72
2024-02-29T02:05:48.838Z,88.37
2024-02-29T02:08:16.608Z,88.12
2024-02-29T02:10:43.280Z,87.97
2024-02-29T02:13:09.893Z,87.75
2024-02-29T02:15:36.471Z,88.21
2024-02-29T02:18:04.200Z,87.85
2024-02-29T02:20:30.801Z,88.28
2024-02-29T02:22:57.309Z,88.25
2024-02-29T02:25:23.919Z,88.24
2024-02-29T02:27:50.473Z,88.63
2024-02-29T02:30:17.087Z,88.97
2024-02-29T02:32:43.771Z,88.74
2024-02-29T02:35:10.299Z,88.99
2024-02-29T02:37:37.978Z,88.42
2024-02-29T02:40:06.389Z,88.12
2024-02-29T02:42:33.541Z,88.45
2024-02-29T02:45:00.267Z,88.79
2024-02-29T02:47:26.926Z,88.92
2024-02-29T02:49:53.413Z,89.28
2024-02-29T02:52:19.979Z,88.79
2024-02-29T02:54:46.621Z,88.22
2024-02-29T02:57:13.183Z,87.86
2024-02-29T02:59:39.649Z,87.70
2024-02-29T03:02:06.239Z,88.01
2024-02-29T03:04:32.793Z,88.28
2024-02-29T03:06:59.351Z,88.82
2024-02-29T03:09:25.945Z,88.40
2024-02-29T03:11:52.754Z,88.04
2024-02-29T03:14:19.340Z,87.53
2024-02-29T03:16:45.848Z,87.19
2024-02-29T03:19:12.495Z,87.36
2024-02-29T03:21:39.258Z,88.03
2024-02-29T03:24:06.018Z,87.79
2024-02-29T03:26:32.536Z,87.35
2024-02-29T03:28:59.827Z,87.84
2024-02-29T03:31:26.432Z,87.99
2024-02-29T03:33:52.970Z,88.14
2024-02-29T03:36:19.702Z,88.61
2024-02-29T03:38:46.584Z,88.80
2024-02-29T03:41:13.120Z,88.36
2024-02-29T03:43:39.602Z,87.57
2024-02-29T03:46:06.290Z,87.43
2024-02-29T03:48:32.990Z,87.01
2024-02-29T03:51:00.144Z,86.84
2024-02-29T03:53:26.880Z,87.22
2024-02-29T03:55:53.669Z,87.08
2024-02-29T03:58:21.100Z,87.34
2024-02-29T04:00:49.940Z,87.09
2024-02-29T04:03:16.828Z,87.21
2024-02-29T04:05:43.363Z,87.33
2024-02-29T04:08:12.978Z,87.44
2024-02-29T04:10:43.102Z,87.72
2024-02-29T04:13:09.920Z,87.51
2024-02-29T04:15:36.628Z,87.96
2024-02-29T04:18:05.212Z,87.65
2024-02-29T04:20:31.868Z,87.75
2024-02-29T04:22:58.346Z,88.73
2024-02-29T04:25:25.082Z,88.20
2024-02-29T04:27:52.075Z,88.24
2024-02-29T04:30:19.211Z,88.05
2024-02-29T04:32:45.897Z,88.52
2024-02-29T04:35:12.596Z,88.59
2024-02-29T04:37:39.929Z,88.53
2024-02-29T04:40:10.947Z,88.84
2024-02-29T04:42:38.585Z,89.22
2024-02-29T04:45:05.981Z,88.66
2024-02-29T04:47:32.957Z,88.53
2024-02-29T04:49:59.764Z,88.53
2024-02-29T04:52:26.557Z,88.94
2024-02-29T04:54:53.261Z,88.12
2024-02-29T04:57:19.947Z,88.47
2024-02-29T04:59:46.500Z,87.86
2024-02-29T05:02:13.100Z,88.25
2024-02-29T05:04:39.713Z,88.62
2024-02-29T05:07:06.257Z,88.97
2024-02-29T05:09:33.490Z,89.05
2024-02-29T05:12:00.327Z,89.33
2024-02-29T05:14:27.021Z,88.71
2024-02-29T05:16:53.532Z,89.23
2024-02-29T05:19:20.243Z,89.18
2024-02-29T05:21:48.238Z,88.45
2024-02-29T05:24:15.011Z,88.74
2024-02-29T05:26:41.512Z,89.09
2024-02-29T05:29:08.020Z,89.13
2024-02-29T05:31:34.667Z,89.31
2024-02-29T05:34:01.285Z,89.57
2024-02-29T05:36:27.895Z,88.84
2024-02-29T05:38:55.679Z,89.07
2024-02-29T05:41:22.273Z,88.70
2024-02-29T05:43:49.138Z,88.15
2024-02-29T05:46:16.554Z,88.83
2024-02-29T05:48:43.184Z,88.58
2024-02-29T05:51:09.843Z,88.32
2024-02-29T05:53:36.396Z,88.63
2024-02-29T05:56:03.907Z,88.34
2024-02-29T05:58:32.236Z,88.69
2024-02-29T06:00:59.133Z,88.35
2024-02-29T06:03:25.897Z,88.24
2024-02-29T06:05:52.494Z,88.41
2024-02-29T06:08:19.063Z,88.29
2024-02-29T06:10:48.159Z,88.18
2024-02-29T06:13:15.507Z,87.88
2024-02-29T06:15:43.245Z,87.75
2024-02-29T06:18:11.969Z,87.73
2024-02-29T06:20:38.701Z,88.05
2024-02-29T06:23:05.604Z,88.59
2024-02-29T06:25:32.725Z,88.80
2024-02-29T06:27:59.355Z,88.37
2024-02-29T06:30:32.856Z,88.08
2024-02-29T06:32:59.980Z,88.09
2024-02-29T06:35:26.667Z,87.65
2024-02-29T06:37:53.431Z,87.74
2024-02-29T06:40:22.986Z,88.08
2024-02-29T06:42:50.128Z,87.91
2024-02-29T06:45:17.871Z,88.68
2024-02-29T06:47:45.237Z,89.38
2024-02-29T06:50:13.153Z,89.08
2024-02-29T06:52:41.610Z,88.79
2024-02-29T06:55:09.176Z,88.70
2024-02-29T06:57:39.125Z,88.85
2024-02-29T07:00:07.316Z,88.39
2024-02-29T07:02:34.387Z,87.42
2024-02-29T07:05:01.031Z,86.50
2024-02-29T07:07:28.094Z,85.83
2024-02-29T07:09:55.448Z,84.22
2024-02-29T07:12:22.361Z,83.69
2024-02-29T07:14:49.331Z,82.78
2024-02-29T07:17:16.066Z,81.52
2024-02-29T07:19:42.624Z,82.19
2024-02-29T07:22:09.261Z,80.16
2024-02-29T07:24:35.897Z,79.46
2024-02-29T07:27:02.932Z,78.40
2024-02-29T07:29:30.162Z,78.31
2024-02-29T07:31:56.824Z,78.31
2024-02-29T07:34:23.431Z,77.70
2024-02-29T07:36:50.448Z,78.25
2024-02-29T07:39:17.775Z,77.96
2024-02-29T07:41:44.544Z,78.94
2024-02-29T07:44:11.307Z,78.76
2024-02-29T07:46:38.083Z,79.22
2024-02-29T07:49:04.721Z,79.31
2024-02-29T07:51:31.388Z,79.27
2024-02-29T07:53:58.031Z,79.39
2024-02-29T07:56:27.018Z,79.68
2024-02-29T07:58:54.496Z,79.70
2024-02-29T08:01:21.166Z,80.20
2024-02-29T08:03:48.265Z,79.72
2024-02-29T08:06:15.158Z,80.44
2024-02-29T08:08:42.583Z,80.63
2024-02-29T08:11:09.266Z,80.77
2024-02-29T08:13:36.133Z,80.59
2024-02-29T08:16:03.124Z,81.07
2024-02-29T08:18:29.917Z,81.02
2024-02-29T08:20:56.473Z,81.21
2024-02-29T08:23:23.037Z,81.50
2024-02-29T08:25:49.650Z,81.17
2024-02-29T08:28:16.843Z,80.88
2024-02-29T08:30:43.678Z,80.74
2024-02-29T08:33:10.354Z,80.84
2024-02-29T08:35:36.954Z,81.38
2024-02-29T08:38:03.880Z,81.48
2024-02-29T08:40:30.532Z,81.29
2024-02-29T08:42:57.346Z,80.71
2024-02-29T08:45:24.115Z,80.45
2024-02-29T08:47:51.226Z,80.01
2024-02-29T08:50:17.841Z,80.37
2024-02-29T08:52:44.807Z,80.25
2024-02-29T08:55:11.481Z,80.10
2024-02-29T08:57:38.283Z,79.94
2024-02-29T09:00:06.488Z,80.15
2024-02-29T09:02:33.179Z,80.06
2024-02-29T09:04:59.722Z,79.77
2024-02-29T09:07:27.398Z,79.82
2024-02-29T09:09:54.157Z,79.96
2024-02-29T09:12:20.807Z,79.24
2024-02-29T09:14:47.755Z,79.32
2024-02-29T09:17:14.637Z,79.14
2024-02-29T09:19:41.440Z,79.07
2024-02-29T09:22:08.087Z,78.85
2024-02-29T09:24:34.767Z,79.53
2024-02-29T09:27:01.425Z,79.64
2024-02-29T09:29:29.886Z,79.77
2024-02-29T09:31:57.737Z,79.25
2024-02-29T09:34:24.319Z,79.38
2024-02-29T09:36:51.786Z,79.06
2024-02-29T09:39:18.423Z,79.38
2024-02-29T09:42:02.304Z,79.29
2024-02-29T09:44:32.770Z,79.58
2024-02-29T09:46:59.741Z,79.88
2024-02-29T09:49:27.907Z,79.76
2024-02-29T09:51:54.571Z,79.62
2024-02-29T09:54:22.714Z,79.57
2024-02-29T09:56:49.332Z,79.85
2024-02-29T09:59:17.692Z,79.78
2024-02-29T10:01:53.437Z,79.91
2024-02-29T10:04:20.485Z,79.47
2024-02-29T10:06:47.575Z,79.45
2024-02-29T10:09:14.219Z,79.14
2024-02-29T10:11:42.146Z,78.93
2024-02-29T10:14:22.707Z,79.27
2024-02-29T10:16:52.786Z,79.37
2024-02-29T10:19:21.018Z,78.94
2024-02-29T10:21:47.763Z,79.28
2024-02-29T10:24:14.599Z,79.03
2024-02-29T10:26:41.378Z,78.94
2024-02-29T10:29:12.181Z,79.01
2024-02-29T10:31:39.909Z,78.60
2024-02-29T10:34:11.344Z,76.70
2024-02-29T10:36:38.035Z,76.39
2024-02-29T10:39:04.847Z,75.77
2024-02-29T10:41:33.121Z,75.08
2024-02-29T10:44:03.930Z,74.01
2024-02-29T10:46:31.548Z,73.91
2024-02-29T10:49:06.561Z,73.15
2024-02-29T10:51:54.909Z,72.83
2024-02-29T10:54:27.454Z,72.42
2024-02-29T10:56:55.094Z,72.64
2024-02-29T10:59:21.776Z,72.07
2024-02-29T11:01:49.527Z,72.94
2024-02-29T11:04:16.718Z,71.99
2024-02-29T11:06:49.511Z,72.50
2024-02-29T11:09:18.474Z,71.12
2024-02-29T11:11:46.909Z,70.91
2024-02-29T11:14:16.590Z,71.43
2024-02-29T11:16:44.810Z,70.71
2024-02-29T11:19:16.008Z,70.84
2024-02-29T11:21:43.078Z,70.48
2024-02-29T11:24:16.131Z,71.05
2024-02-29T11:26:43.659Z,70.25
2024-02-29T11:29:16.246Z,70.10
2024-02-29T11:31:48.414Z,70.51
2024-02-29T11:34:19.076Z,70.81
2024-02-29T11:36:46.487Z,70.79
2024-02-29T11:39:15.535Z,70.15
2024-02-29T11:41:42.278Z,70.25
2024-02-29T11:44:08.839Z,70.15
2024-02-29T11:46:35.440Z,70.83
2024-02-29T11:49:02.182Z,71.36
2024-02-29T11:51:29.641Z,71.64
2024-02-29T11:53:56.537Z,70.09
2024-02-29T11:56:23.284Z,70.39
2024-02-29T11:58:51.197Z,70.44
2024-02-29T12:01:17.899Z,70.90
2024-02-29T12:03:46.242Z,71.34
2024-02-29T12:06:13.088Z,71.14
2024-02-29T12:08:39.876Z,70.53
2024-02-29T12:11:07.516Z,70.48
2024-02-29T12:13:34.449Z,70.61
2024-02-29T12:16:01.238Z,70.15
2024-02-29T12:18:27.864Z,69.70
2024-02-29T12:20:54.601Z,69.98
2024-02-29T12:23:21.389Z,70.26
2024-02-29T12:25:48.048Z,69.87
2024-02-29T12:28:15.123Z,69.82
2024-02-29T12:30:42.728Z,70.89
2024-02-29T12:33:14.290Z,70.11
2024-02-29T12:35:43.562Z,70.08
2024-02-29T12:38:15.043Z,70.90
2024-02-29T12:40:41.830Z,70.22
2024-02-29T12:43:13.210Z,70.17
2024-02-29T12:45:39.840Z,69.95
2024-02-29T12:48:07.013Z,69.69
2024-02-29T12:50:33.841Z,69.48
2024-02-29T12:53:00.370Z,70.42
2024-02-29T12:55:28.532Z,69.75
2024-02-29T12:57:55.538Z,69.73
2024-02-29T13:00:24.508Z,69.99
2024-02-29T13:02:51.556Z,69.89
2024-02-29T13:05:18.954Z,69.95
2024-02-29T13:07:45.757Z,69.30
2024-02-29T13:10:13.022Z,68.36
2024-02-29T13:12:45.469Z,68.67
2024-02-29T13:15:16.021Z,69.80
2024-02-29T13:17:42.701Z,69.28
2024-02-29T13:20:09.956Z,68.65
2024-02-29T13:22:36.572Z,68.55
2024-02-29T13:25:04.360Z,69.04
2024-02-29T13:27:31.200Z,68.72
2024-02-29T13:29:57.834Z,69.51
2024-02-29T13:32:24.669Z,69.19
2024-02-29T13:34:51.832Z,68.82
2024-02-29T13:37:20.516Z,68.70
2024-02-29T13:39:47.657Z,69.10
2024-02-29T13:42:14.350Z,68.44
2024-02-29T13:44:40.972Z,69.06
2024-02-29T13:47:07.563Z,69.39
2024-02-29T13:49:35.684Z,68.42
2024-02-29T13:52:02.272Z,67.09
2024-02-29T13:54:29.101Z,66.68
2024-02-29T13:56:55.818Z,67.27
2024-02-29T13:59:22.899Z,67.27
2024-02-29T14:01:49.585Z,66.81
2024-02-29T14:04:16.837Z,68.10
2024-02-29T14:06:44.600Z,66.40
2024-02-29T14:09:12.476Z,67.46
2024-02-29T14:11:40.046Z,66.78
2024-02-29T14:14:07.223Z,67.39
2024-02-29T14:16:34.252Z,66.89
2024-02-29T14:19:00.801Z,67.22
2024-02-29T14:21:27.503Z,67.32
2024-02-29T14:23:54.201Z,67.37
2024-02-29T14:26:20.968Z,67.85
2024-02-29T14:28:47.704Z,67.22
2024-02-29T14:31:14.816Z,68.54
2024-02-29T14:33:42.274Z,67.27
2024-02-29T14:36:11.029Z,66.97
2024-02-29T14:38:38.656Z,67.97
2024-02-29T14:41:05.405Z,67.70
2024-02-29T14:43:31.927Z,67.10
2024-02-29T14:45:58.564Z,67.45
2024-02-29T14:48:25.619Z,66.96
2024-02-29T14:50:52.178Z,66.58
2024-02-29T14:53:18.773Z,67.24
2024-02-29T14:55:45.313Z,66.86
2024-02-29T14:58:11.985Z,66.28
2024-02-29T15:00:38.586Z,65.78
2024-02-29T15:03:05.484Z,66.07
2024-02-29T15:05:32.040Z,65.32
2024-02-29T15:07:59.124Z,66.05
2024-02-29T15:10:25.718Z,64.81
2024-02-29T15:12:52.445Z,65.06
2024-02-29T15:15:19.056Z,65.20
2024-02-29T15:17:45.805Z,64.91
2024-02-29T15:20:12.713Z,65.64
2024-02-29T15:22:40.034Z,65.49
2024-02-29T15:25:15.582Z,65.46
2024-02-29T15:27:43.178Z,63.87
2024-02-29T15:30:10.926Z,64.23
2024-02-29T15:32:37.583Z,63.38
2024-02-29T15:35:06.012Z,64.00
2024-02-29T15:37:32.795Z,64.92
2024-02-29T15:40:00.414Z,63.13
2024-02-29T15:42:27.825Z,62.78
2024-02-29T15:44:54.696Z,63.25
2024-02-29T15:47:21.329Z,62.67
2024-02-29T15:49:49.420Z,62.60
2024-02-29T15:52:17.673Z,63.06
2024-02-29T15:54:44.761Z,63.03
2024-02-29T15:57:12.599Z,62.79
2024-02-29T15:59:40.289Z,63.10
2024-02-29T16:02:07.574Z,63.43
2024-02-29T16:04:34.249Z,62.91
2024-02-29T16:07:00.896Z,62.84
2024-02-29T16:09:27.542Z,63.06
2024-02-29T16:11:54.226Z,63.69
2024-02-29T16:14:20.845Z,63.46
2024-02-29T16:16:48.360Z,63.49
2024-02-29T16:19:16.953Z,62.51
2024-02-29T16:21:43.844Z,62.57
2024-02-29T16:24:10.557Z,62.24
2024-02-29T16:26:37.317Z,62.04
2024-02-29T16:29:04.242Z,62.37
2024-02-29T16:31:30.868Z,61.51
2024-02-29T16:33:57.639Z,61.62
2024-02-29T16:36:24.251Z,62.59
2024-02-29T16:38:50.992Z,62.21
2024-02-29T16:41:17.677Z,59.79
2024-02-29T16:43:44.583Z,61.46
2024-02-29T16:46:12.043Z,59.74
2024-02-29T16:48:38.724Z,59.57
2024-02-29T16:51:05.737Z,59.78
2024-02-29T16:53:32.456Z,59.41
2024-02-29T16:55:59.877Z,58.95
2024-02-29T16:58:27.079Z,60.39
2024-02-29T17:00:55.473Z,58.73
2024-02-29T17:03:22.266Z,58.82
2024-02-29T17:05:48.802Z,58.70
2024-02-29T17:08:15.368Z,58.67
2024-02-29T17:10:42.218Z,58.37
2024-02-29T17:13:09.196Z,57.99
2024-02-29T17:15:38.367Z,58.47
2024-02-29T17:18:05.305Z,58.19
2024-02-29T17:20:31.980Z,57.50
2024-02-29T17:22:58.476Z,59.43
2024-02-29T17:25:25.207Z,58.13
2024-02-29T17:27:53.864Z,58.87
2024-02-29T17:30:21.289Z,58.36
2024-02-29T17:32:50.793Z,58.57
2024-02-29T17:35:17.452Z,57.77
2024-02-29T17:37:45.209Z,58.43
2024-02-29T17:40:12.418Z,56.88
2024-02-29T17:42:39.018Z,57.66
2024-02-29T17:45:06.174Z,57.25
2024-02-29T17:47:32.789Z,56.97
2024-02-29T17:49:59.360Z,57.27
2024-02-29T17:52:26.318Z,56.38
2024-02-29T17:54:53.429Z,55.29
2024-02-29T17:57:20.101Z,55.45
2024-02-29T17:59:46.711Z,56.59
2024-02-29T18:02:13.434Z,56.28
2024-02-29T18:04:40.628Z,55.43
2024-02-29T18:07:07.218Z,55.70
2024-02-29T18:09:33.733Z,55.16
2024-02-29T18:12:00.284Z,54.09
2024-02-29T18:14:27.807Z,55.05
2024-02-29T18:16:55.759Z,54.75
2024-02-29T18:19:22.519Z,53.55
2024-02-29T18:21:49.582Z,54.80
2024-02-29T18:24:16.385Z,53.40
2024-02-29T18:26:44.481Z,54.37
2024-02-29T18:29:11.151Z,53.94
2024-02-29T18:31:37.696Z,54.67
2024-02-29T18:34:04.293Z,52.74
2024-02-29T18:36:30.825Z,54.21
2024-02-29T18:38:57.429Z,53.65
2024-02-29T18:41:24.027Z,52.80
2024-02-29T18:43:50.615Z,53.31
2024-02-29T18:46:17.706Z,53.98
2024-02-29T18:48:44.489Z,52.56
2024-02-29T18:51:11.062Z,52.78
2024-02-29T18:53:37.777Z,53.33
2024-02-29T18:56:04.721Z,52.85
2024-02-29T18:58:31.516Z,52.60
2024-02-29T19:00:58.253Z,52.11
2024-02-29T19:03:24.901Z,52.38
2024-02-29T19:05:52.996Z,52.82
2024-02-29T19:08:21.530Z,52.26
2024-02-29T19:10:48.287Z,52.99
2024-02-29T19:13:15.440Z,52.74
2024-02-29T19:15:42.985Z,51.90
2024-02-29T19:18:09.608Z,50.77
2024-02-29T19:20:36.350Z,51.09
2024-02-29T19:23:03.134Z,50.81
2024-02-29T19:25:29.730Z,51.35
2024-02-29T19:27:56.449Z,51.72
2024-02-29T19:30:23.687Z,50.94
2024-02-29T19:32:50.397Z,50.09
2024-02-29T19:35:16.966Z,51.32
2024-02-29T19:37:44.569Z,49.56
2024-02-29T19:40:11.332Z,50.61
2024-02-29T19:42:41.434Z,50.42
2024-02-29T19:45:09.799Z,50.23
2024-02-29T19:47:38.100Z,50.63
2024-02-29T19:50:05.492Z,49.21
2024-02-29T19:52:35.813Z,49.49
2024-02-29T19:55:05.842Z,49.71
2024-02-29T19:57:32.942Z,50.90
2024-02-29T19:59:59.449Z,49.54
2024-02-29T20:02:26.969Z,50.03
2024-02-29T20:04:53.510Z,50.59
2024-02-29T20:07:20.899Z,50.71
2024-02-29T20:09:53.031Z,51.00
2024-02-29T20:12:20.402Z,51.51
2024-02-29T20:14:49.682Z,51.20
2024-02-29T20:17:16.226Z,50.93
2024-02-29T20:19:42.819Z,51.61
2024-02-29T20:22:09.733Z,51.77
2024-02-29T20:24:36.357Z,51.75
2024-02-29T20:27:04.160Z,52.00
2024-02-29T20:29:30.713Z,51.76
2024-02-29T20:31:57.433Z,52.45
2024-02-29T20:34:24.014Z,52.39
2024-02-29T20:36:52.027Z,52.48
2024-02-29T20:39:19.540Z,53.06
2024-02-29T20:41:46.620Z,52.90
2024-02-29T20:44:13.602Z,53.02
2024-02-29T20:46:40.365Z,53.63
2024-02-29T20:49:07.354Z,54.12
2024-02-29T20:51:34.075Z,55.36
2024-02-29T20:54:00.705Z,55.83
2024-02-29T20:56:27.393Z,56.87
2024-02-29T20:58:53.889Z,57.02
2024-02-29T21:01:20.529Z,58.18
2024-02-29T21:03:48.822Z,58.27
2024-02-29T21:06:16.551Z,58.06
2024-02-29T21:08:43.096Z,58.61
2024-02-29T21:11:09.826Z,59.78
2024-02-29T21:13:37.404Z,60.56
2024-02-29T21:16:04.345Z,60.63
2024-02-29T21:18:30.881Z,60.58
2024-02-29T21:20:57.550Z,61.67
2024-02-29T21:23:24.215Z,62.07
2024-02-29T21:25:50.789Z,61.91
2024-02-29T21:28:17.449Z,62.89
2024-02-29T21:30:44.399Z,62.31
2024-02-29T21:33:11.013Z,62.58
2024-02-29T21:35:37.718Z,62.96
2024-02-29T21:38:04.953Z,61.67
2024-02-29T21:40:31.768Z,61.65
2024-02-29T21:42:58.590Z,60.35
2024-02-29T21:45:25.173Z,60.18
2024-02-29T21:47:51.727Z,59.69
2024-02-29T21:50:19.118Z,60.79
2024-02-29T21:52:45.656Z,61.33
2024-02-29T21:55:12.250Z,61.34
2024-02-29T21:57:38.922Z,61.81
2024-02-29T22:00:06.185Z,62.16
2024-02-29T22:02:32.742Z,62.26
2024-02-29T22:05:00.548Z,62.42
2024-02-29T22:07:27.167Z,62.83
2024-02-29T22:09:53.756Z,62.63
2024-02-29T22:12:20.464Z,62.82
2024-02-29T22:14:47.042Z,63.32
2024-02-29T22:17:13.632Z,63.76
2024-02-29T22:19:40.222Z,64.62
2024-02-29T22:22:07.279Z,64.57
2024-02-29T22:24:34.983Z,65.15
2024-02-29T22:27:01.972Z,65.08
2024-02-29T22:29:29.290Z,65.80
2024-02-29T22:31:55.821Z,67.09
2024-02-29T22:34:22.965Z,67.74
2024-02-29T22:36:49.696Z,68.03
2024-02-29T22:39:16.244Z,68.81
2024-02-29T22:41:52.650Z,68.86
2024-02-29T22:44:23.800Z,69.28
2024-02-29T22:46:50.379Z,69.65
2024-02-29T22:49:16.943Z,70.72
2024-02-29T22:51:43.616Z,70.56
2024-02-29T22:54:10.130Z,69.97
2024-02-29T22:56:37.121Z,70.49
2024-02-29T22:59:03.672Z,71.29
2024-02-29T23:01:30.299Z,71.20
2024-02-29T23:03:56.934Z,71.78
2024-02-29T23:06:23.624Z,71.82
2024-02-29T23:08:50.130Z,72.39
2024-02-29T23:11:17.480Z,73.36
2024-02-29T23:13:44.063Z,74.04
2024-02-29T23:16:10.624Z,73.10
2024-02-29T23:18:37.173Z,74.22
2024-02-29T23:21:03.833Z,74.14
2024-02-29T23:23:30.380Z,74.60
2024-02-29T23:25:57.208Z,74.36
2024-02-29T23:28:23.794Z,73.67
2024-02-29T23:30:50.412Z,73.67
2024-02-29T23:33:16.992Z,73.70
2024-02-29T23:35:43.520Z,73.94
2024-02-29T23:38:10.620Z,73.95
2024-02-29T23:40:37.252Z,73.99
2024-02-29T23:43:04.167Z,74.05
2024-02-29T23:45:30.746Z,74.61
2024-02-29T23:47:57.359Z,74.86
2024-02-29T23:50:25.793Z,75.37
2024-02-29T23:52:52.518Z,75.64
2024-02-29T23:55:19.207Z,75.83
2024-02-29T23:57:45.881Z,75.60
